Grafton Airport
YGFN : now visible

Aeroporto :











RITROVATECI SU...

 
LOGIN :

Iscrizione | Disclaimer

   EN    FR    IT 

 









Sommario :    VFR   VFR Marginale   IFR   IFR Intensivo   IFR Molto Intensivo
Visibilità : 
Base nubi : 
>= 8 km
>= 3000ft
5 / 8 km
1000 / 3000 ft
1500m / 5 km
500 / 1000 ft
800 / 1500m
200 / 500 ft
< 800m
< 200 ft
Simboli :   Temporali  Nebbia  Neve Forte  Precipitazioni Forti  Vento > 20 kt






- Altitudine del aeroporto : 110 ft
- Codice IATA : GFN


YGFN - Grafton

ULTIMO METAR :
  • 252123Z AUTO 00000KT 9999 // SCT077 BKN089 OVC110 11/11 Q1017

METARs OBSOLETI :
  • 252100Z AUTO 00000KT 3600 // SCT056 BKN070 OVC085 11/11 Q1017
  • 252056Z AUTO 00000KT 5000 // SCT056 BKN068 OVC085 11/11 Q1017
  • 252000Z AUTO 00000KT 9999 // OVC089 10/09 Q1016
  • 251900Z AUTO 00000KT 9999 // OVC078 10/10 Q1015

TAF N/A
FIR YBBB / Oceania



MetMap, La meteo Aeronautica in un colpo d'occhio ! - Copyright ORBIFLY Dicembre 2007 - Disclaimer

ORBIFLY MET'MAP TEAM :

Programmazione e sviluppo : Alexandra Zaïnal
Concezione : Baudouin d'Aumeries
Aiuto per la programmazione : Marc-Olivier Méhu
Supporto tecnico e logistico : Manuel Goepfert
Aiuto per la traduzione : Arnaldo La Scala

Contatto : metmap@orbifly.com




FONTI E CREDITI :

   NOAA       Earth
Advisory